sensor_id;sensor_type;location;lat;lon;timestamp;temperature;humidity
4050;DHT22;2039;50.894;6.888;2023-11-21T00:01:17;10.20;99.90
4050;DHT22;2039;50.894;6.888;2023-11-21T00:03:43;10.20;99.90
4050;DHT22;2039;50.894;6.888;2023-11-21T00:06:09;10.20;99.90
4050;DHT22;2039;50.894;6.888;2023-11-21T00:08:36;10.20;99.90
4050;DHT22;2039;50.894;6.888;2023-11-21T00:11:02;10.20;99.90
4050;DHT22;2039;50.894;6.888;2023-11-21T00:13:28;10.20;99.90
4050;DHT22;2039;50.894;6.888;2023-11-21T00:15:53;10.20;99.90
4050;DHT22;2039;50.894;6.888;2023-11-21T00:18:20;10.20;99.90
4050;DHT22;2039;50.894;6.888;2023-11-21T00:20:46;10.10;99.90
4050;DHT22;2039;50.894;6.888;2023-11-21T00:23:12;10.20;99.90
4050;DHT22;2039;50.894;6.888;2023-11-21T00:25:37;10.10;99.90
4050;DHT22;2039;50.894;6.888;2023-11-21T00:28:03;10.10;99.90
4050;DHT22;2039;50.894;6.888;2023-11-21T00:30:29;10.10;99.90
4050;DHT22;2039;50.894;6.888;2023-11-21T00:32:56;10.10;99.90
4050;DHT22;2039;50.894;6.888;2023-11-21T00:35:21;10.20;99.90
4050;DHT22;2039;50.894;6.888;2023-11-21T00:37:47;10.20;99.90
4050;DHT22;2039;50.894;6.888;2023-11-21T00:40:15;10.20;99.90
4050;DHT22;2039;50.894;6.888;2023-11-21T00:42:41;10.20;99.90
4050;DHT22;2039;50.894;6.888;2023-11-21T00:45:07;10.10;99.90
4050;DHT22;2039;50.894;6.888;2023-11-21T00:47:33;10.10;99.90
4050;DHT22;2039;50.894;6.888;2023-11-21T00:49:59;10.10;99.90
4050;DHT22;2039;50.894;6.888;2023-11-21T00:52:24;10.10;99.90
4050;DHT22;2039;50.894;6.888;2023-11-21T00:54:50;10.10;99.90
4050;DHT22;2039;50.894;6.888;2023-11-21T00:57:16;10.00;99.90
4050;DHT22;2039;50.894;6.888;2023-11-21T00:59:42;10.00;99.90
4050;DHT22;2039;50.894;6.888;2023-11-21T01:02:07;10.00;99.90
4050;DHT22;2039;50.894;6.888;2023-11-21T01:04:36;10.00;99.90
4050;DHT22;2039;50.894;6.888;2023-11-21T01:07:01;10.00;99.90
4050;DHT22;2039;50.894;6.888;2023-11-21T01:09:27;10.00;99.90
4050;DHT22;2039;50.894;6.888;2023-11-21T01:11:53;9.90;99.90
4050;DHT22;2039;50.894;6.888;2023-11-21T01:14:19;9.90;99.90
4050;DHT22;2039;50.894;6.888;2023-11-21T01:16:45;10.00;99.90
4050;DHT22;2039;50.894;6.888;2023-11-21T01:19:11;10.00;99.90
4050;DHT22;2039;50.894;6.888;2023-11-21T01:21:36;10.10;99.90
4050;DHT22;2039;50.894;6.888;2023-11-21T01:24:02;10.10;99.90
4050;DHT22;2039;50.894;6.888;2023-11-21T01:26:29;10.10;99.90
4050;DHT22;2039;50.894;6.888;2023-11-21T01:29:13;10.10;99.90
4050;DHT22;2039;50.894;6.888;2023-11-21T01:31:38;10.10;99.90
4050;DHT22;2039;50.894;6.888;2023-11-21T01:34:04;10.10;99.90
4050;DHT22;2039;50.894;6.888;2023-11-21T01:36:31;10.10;99.90
4050;DHT22;2039;50.894;6.888;2023-11-21T01:38:59;10.10;99.90
4050;DHT22;2039;50.894;6.888;2023-11-21T01:41:26;10.10;99.90
4050;DHT22;2039;50.894;6.888;2023-11-21T01:43:52;10.10;99.90
4050;DHT22;2039;50.894;6.888;2023-11-21T01:46:19;10.10;99.90
4050;DHT22;2039;50.894;6.888;2023-11-21T01:48:46;10.00;99.90
4050;DHT22;2039;50.894;6.888;2023-11-21T01:51:13;10.00;99.90
4050;DHT22;2039;50.894;6.888;2023-11-21T01:53:39;10.00;99.90
4050;DHT22;2039;50.894;6.888;2023-11-21T01:56:06;10.00;99.90
4050;DHT22;2039;50.894;6.888;2023-11-21T01:58:33;9.90;99.90
4050;DHT22;2039;50.894;6.888;2023-11-21T02:00:59;10.00;99.90
4050;DHT22;2039;50.894;6.888;2023-11-21T02:03:25;9.90;99.90
4050;DHT22;2039;50.894;6.888;2023-11-21T02:05:52;9.80;99.90
4050;DHT22;2039;50.894;6.888;2023-11-21T02:08:19;9.70;99.90
4050;DHT22;2039;50.894;6.888;2023-11-21T02:10:45;9.70;99.90
4050;DHT22;2039;50.894;6.888;2023-11-21T02:13:34;9.80;99.90
4050;DHT22;2039;50.894;6.888;2023-11-21T02:16:00;9.80;99.90
4050;DHT22;2039;50.894;6.888;2023-11-21T02:18:26;9.80;99.90
4050;DHT22;2039;50.894;6.888;2023-11-21T02:20:55;9.80;99.90
4050;DHT22;2039;50.894;6.888;2023-11-21T02:23:21;9.80;99.90
4050;DHT22;2039;50.894;6.888;2023-11-21T02:25:48;9.80;99.90
4050;DHT22;2039;50.894;6.888;2023-11-21T02:28:14;9.80;99.90
4050;DHT22;2039;50.894;6.888;2023-11-21T02:30:41;9.80;99.90
4050;DHT22;2039;50.894;6.888;2023-11-21T02:33:07;9.70;99.90
4050;DHT22;2039;50.894;6.888;2023-11-21T02:35:33;9.80;99.90
4050;DHT22;2039;50.894;6.888;2023-11-21T02:38:00;9.80;99.90
4050;DHT22;2039;50.894;6.888;2023-11-21T02:40:26;9.90;99.90
4050;DHT22;2039;50.894;6.888;2023-11-21T02:42:52;9.80;99.90
4050;DHT22;2039;50.894;6.888;2023-11-21T02:45:19;9.90;99.90
4050;DHT22;2039;50.894;6.888;2023-11-21T02:47:46;9.90;99.90
4050;DHT22;2039;50.894;6.888;2023-11-21T02:50:12;9.90;99.90
4050;DHT22;2039;50.894;6.888;2023-11-21T02:52:38;9.80;99.90
4050;DHT22;2039;50.894;6.888;2023-11-21T02:55:06;9.90;99.90
4050;DHT22;2039;50.894;6.888;2023-11-21T02:57:32;9.90;99.90
4050;DHT22;2039;50.894;6.888;2023-11-21T02:59:59;9.80;99.90
4050;DHT22;2039;50.894;6.888;2023-11-21T03:02:25;9.80;99.90
4050;DHT22;2039;50.894;6.888;2023-11-21T03:04:51;9.80;99.90
4050;DHT22;2039;50.894;6.888;2023-11-21T03:07:17;9.90;99.90
4050;DHT22;2039;50.894;6.888;2023-11-21T03:09:45;9.80;99.90
4050;DHT22;2039;50.894;6.888;2023-11-21T03:12:14;9.80;99.90
4050;DHT22;2039;50.894;6.888;2023-11-21T03:14:41;9.80;99.90
4050;DHT22;2039;50.894;6.888;2023-11-21T03:17:07;9.90;99.90
4050;DHT22;2039;50.894;6.888;2023-11-21T03:19:32;9.90;99.90
4050;DHT22;2039;50.894;6.888;2023-11-21T03:21:58;9.90;99.90
4050;DHT22;2039;50.894;6.888;2023-11-21T03:24:24;9.80;99.90
4050;DHT22;2039;50.894;6.888;2023-11-21T03:26:50;9.80;99.90
4050;DHT22;2039;50.894;6.888;2023-11-21T03:29:16;9.80;99.90
4050;DHT22;2039;50.894;6.888;2023-11-21T03:31:42;9.80;99.90
4050;DHT22;2039;50.894;6.888;2023-11-21T03:34:15;9.80;99.90
4050;DHT22;2039;50.894;6.888;2023-11-21T03:36:41;9.80;99.90
4050;DHT22;2039;50.894;6.888;2023-11-21T03:39:07;9.80;99.90
4050;DHT22;2039;50.894;6.888;2023-11-21T03:41:32;9.80;99.90
4050;DHT22;2039;50.894;6.888;2023-11-21T03:43:59;9.80;99.90
4050;DHT22;2039;50.894;6.888;2023-11-21T03:46:25;9.80;99.90
4050;DHT22;2039;50.894;6.888;2023-11-21T03:48:51;9.80;99.90
4050;DHT22;2039;50.894;6.888;2023-11-21T03:51:16;9.80;99.90
4050;DHT22;2039;50.894;6.888;2023-11-21T03:53:42;9.70;99.90
4050;DHT22;2039;50.894;6.888;2023-11-21T03:56:08;9.70;99.90
4050;DHT22;2039;50.894;6.888;2023-11-21T03:58:34;9.70;99.90
4050;DHT22;2039;50.894;6.888;2023-11-21T04:00:59;9.70;99.90
4050;DHT22;2039;50.894;6.888;2023-11-21T04:03:25;9.70;99.90
4050;DHT22;2039;50.894;6.888;2023-11-21T04:05:51;9.80;99.90
4050;DHT22;2039;50.894;6.888;2023-11-21T04:08:16;9.70;99.90
4050;DHT22;2039;50.894;6.888;2023-11-21T04:10:42;9.80;99.90
4050;DHT22;2039;50.894;6.888;2023-11-21T04:13:07;9.70;99.90
4050;DHT22;2039;50.894;6.888;2023-11-21T04:15:33;9.80;99.90
4050;DHT22;2039;50.894;6.888;2023-11-21T04:17:59;9.70;99.90
4050;DHT22;2039;50.894;6.888;2023-11-21T04:20:25;9.70;99.90
4050;DHT22;2039;50.894;6.888;2023-11-21T04:22:51;9.70;99.90
4050;DHT22;2039;50.894;6.888;2023-11-21T04:25:17;9.70;99.90
4050;DHT22;2039;50.894;6.888;2023-11-21T04:27:43;9.70;99.90
4050;DHT22;2039;50.894;6.888;2023-11-21T04:30:10;9.70;99.90
4050;DHT22;2039;50.894;6.888;2023-11-21T04:32:36;9.70;99.90
4050;DHT22;2039;50.894;6.888;2023-11-21T04:35:03;9.60;99.90
4050;DHT22;2039;50.894;6.888;2023-11-21T04:37:29;9.60;99.90
4050;DHT22;2039;50.894;6.888;2023-11-21T04:39:55;9.60;99.90
4050;DHT22;2039;50.894;6.888;2023-11-21T04:42:21;9.60;99.90
4050;DHT22;2039;50.894;6.888;2023-11-21T04:44:47;9.60;99.90
4050;DHT22;2039;50.894;6.888;2023-11-21T04:47:13;9.60;99.90
4050;DHT22;2039;50.894;6.888;2023-11-21T04:49:41;9.60;99.90
4050;DHT22;2039;50.894;6.888;2023-11-21T04:52:07;9.60;99.90
4050;DHT22;2039;50.894;6.888;2023-11-21T04:54:35;9.60;99.90
4050;DHT22;2039;50.894;6.888;2023-11-21T04:57:01;9.60;99.90
4050;DHT22;2039;50.894;6.888;2023-11-21T04:59:26;9.50;99.90
4050;DHT22;2039;50.894;6.888;2023-11-21T05:01:53;9.40;99.90
4050;DHT22;2039;50.894;6.888;2023-11-21T05:04:19;9.50;99.90
4050;DHT22;2039;50.894;6.888;2023-11-21T05:06:45;9.50;99.90
4050;DHT22;2039;50.894;6.888;2023-11-21T05:09:11;9.60;99.90
4050;DHT22;2039;50.894;6.888;2023-11-21T05:11:38;9.60;99.90
4050;DHT22;2039;50.894;6.888;2023-11-21T05:14:04;9.50;99.90
4050;DHT22;2039;50.894;6.888;2023-11-21T05:16:31;9.50;99.90
4050;DHT22;2039;50.894;6.888;2023-11-21T05:18:57;9.50;99.90
4050;DHT22;2039;50.894;6.888;2023-11-21T05:21:29;9.50;99.90
4050;DHT22;2039;50.894;6.888;2023-11-21T05:23:57;9.50;99.90
4050;DHT22;2039;50.894;6.888;2023-11-21T05:26:23;9.50;99.90
4050;DHT22;2039;50.894;6.888;2023-11-21T05:28:48;9.50;99.90
4050;DHT22;2039;50.894;6.888;2023-11-21T05:31:14;9.50;99.90
4050;DHT22;2039;50.894;6.888;2023-11-21T05:33:41;9.50;99.90
4050;DHT22;2039;50.894;6.888;2023-11-21T05:36:09;9.50;99.90
4050;DHT22;2039;50.894;6.888;2023-11-21T05:38:36;9.40;99.90
4050;DHT22;2039;50.894;6.888;2023-11-21T05:41:02;9.40;99.90
4050;DHT22;2039;50.894;6.888;2023-11-21T05:43:29;9.50;99.90
4050;DHT22;2039;50.894;6.888;2023-11-21T05:45:56;9.50;99.90
4050;DHT22;2039;50.894;6.888;2023-11-21T05:48:21;9.50;99.90
4050;DHT22;2039;50.894;6.888;2023-11-21T05:50:47;9.50;99.90
4050;DHT22;2039;50.894;6.888;2023-11-21T05:53:15;9.50;99.90
4050;DHT22;2039;50.894;6.888;2023-11-21T05:55:41;9.40;99.90
4050;DHT22;2039;50.894;6.888;2023-11-21T05:58:07;9.40;99.90
4050;DHT22;2039;50.894;6.888;2023-11-21T06:00:33;9.40;99.90
4050;DHT22;2039;50.894;6.888;2023-11-21T06:02:59;9.40;99.90
4050;DHT22;2039;50.894;6.888;2023-11-21T06:05:26;9.30;99.90
4050;DHT22;2039;50.894;6.888;2023-11-21T06:07:55;9.40;99.90
4050;DHT22;2039;50.894;6.888;2023-11-21T06:10:24;9.40;99.90
4050;DHT22;2039;50.894;6.888;2023-11-21T06:12:51;9.40;99.90
4050;DHT22;2039;50.894;6.888;2023-11-21T06:15:16;9.40;99.90
4050;DHT22;2039;50.894;6.888;2023-11-21T06:17:44;9.40;99.90
4050;DHT22;2039;50.894;6.888;2023-11-21T06:20:14;9.40;99.90
4050;DHT22;2039;50.894;6.888;2023-11-21T06:22:42;9.40;99.90
4050;DHT22;2039;50.894;6.888;2023-11-21T06:25:08;9.40;99.90
4050;DHT22;2039;50.894;6.888;2023-11-21T06:27:47;9.40;99.90
4050;DHT22;2039;50.894;6.888;2023-11-21T06:30:14;9.40;99.90
4050;DHT22;2039;50.894;6.888;2023-11-21T06:32:41;9.30;99.90
4050;DHT22;2039;50.894;6.888;2023-11-21T06:35:07;9.30;99.90
4050;DHT22;2039;50.894;6.888;2023-11-21T06:37:36;9.30;99.90
4050;DHT22;2039;50.894;6.888;2023-11-21T06:40:02;9.30;99.90
4050;DHT22;2039;50.894;6.888;2023-11-21T06:42:29;9.30;99.90
4050;DHT22;2039;50.894;6.888;2023-11-21T06:44:55;9.30;99.90
4050;DHT22;2039;50.894;6.888;2023-11-21T06:47:25;9.30;99.90
4050;DHT22;2039;50.894;6.888;2023-11-21T06:49:51;9.30;99.90
4050;DHT22;2039;50.894;6.888;2023-11-21T06:52:18;9.30;99.90
4050;DHT22;2039;50.894;6.888;2023-11-21T06:54:44;9.30;99.90
4050;DHT22;2039;50.894;6.888;2023-11-21T06:57:13;9.30;99.90
4050;DHT22;2039;50.894;6.888;2023-11-21T06:59:39;9.30;99.90
4050;DHT22;2039;50.894;6.888;2023-11-21T07:02:08;9.30;99.90
4050;DHT22;2039;50.894;6.888;2023-11-21T07:04:37;9.30;99.90
4050;DHT22;2039;50.894;6.888;2023-11-21T07:07:04;9.30;99.90
4050;DHT22;2039;50.894;6.888;2023-11-21T07:09:31;9.30;99.90
4050;DHT22;2039;50.894;6.888;2023-11-21T07:11:57;9.30;99.90
4050;DHT22;2039;50.894;6.888;2023-11-21T07:14:22;9.30;99.90
4050;DHT22;2039;50.894;6.888;2023-11-21T07:16:48;9.30;99.90
4050;DHT22;2039;50.894;6.888;2023-11-21T07:19:14;9.30;99.90
4050;DHT22;2039;50.894;6.888;2023-11-21T07:21:40;9.30;99.90
4050;DHT22;2039;50.894;6.888;2023-11-21T07:24:07;9.30;99.90
4050;DHT22;2039;50.894;6.888;2023-11-21T07:26:34;9.30;99.90
4050;DHT22;2039;50.894;6.888;2023-11-21T07:29:00;9.30;99.90
4050;DHT22;2039;50.894;6.888;2023-11-21T07:31:26;9.30;99.90
4050;DHT22;2039;50.894;6.888;2023-11-21T07:33:52;9.30;99.90
4050;DHT22;2039;50.894;6.888;2023-11-21T07:36:19;9.30;99.90
4050;DHT22;2039;50.894;6.888;2023-11-21T07:38:46;9.30;99.90
4050;DHT22;2039;50.894;6.888;2023-11-21T07:41:12;9.30;99.90
4050;DHT22;2039;50.894;6.888;2023-11-21T07:43:41;9.30;99.90
4050;DHT22;2039;50.894;6.888;2023-11-21T07:46:07;9.30;99.90
4050;DHT22;2039;50.894;6.888;2023-11-21T07:48:34;9.30;99.90
4050;DHT22;2039;50.894;6.888;2023-11-21T07:51:01;9.30;99.90
4050;DHT22;2039;50.894;6.888;2023-11-21T07:53:29;9.30;99.90
4050;DHT22;2039;50.894;6.888;2023-11-21T07:55:56;9.40;99.90
4050;DHT22;2039;50.894;6.888;2023-11-21T07:58:21;9.40;99.90
4050;DHT22;2039;50.894;6.888;2023-11-21T08:00:47;9.40;99.90
4050;DHT22;2039;50.894;6.888;2023-11-21T08:03:16;9.40;99.90
4050;DHT22;2039;50.894;6.888;2023-11-21T08:05:42;9.50;99.90
4050;DHT22;2039;50.894;6.888;2023-11-21T08:08:10;9.50;99.90
4050;DHT22;2039;50.894;6.888;2023-11-21T08:10:37;9.50;99.90
4050;DHT22;2039;50.894;6.888;2023-11-21T08:13:04;9.60;99.90
4050;DHT22;2039;50.894;6.888;2023-11-21T08:15:30;9.60;99.90
4050;DHT22;2039;50.894;6.888;2023-11-21T08:17:59;9.60;99.90
4050;DHT22;2039;50.894;6.888;2023-11-21T08:20:25;9.70;99.90
4050;DHT22;2039;50.894;6.888;2023-11-21T08:22:50;9.70;99.90
4050;DHT22;2039;50.894;6.888;2023-11-21T08:25:18;9.70;99.90
4050;DHT22;2039;50.894;6.888;2023-11-21T08:27:46;9.80;99.90
4050;DHT22;2039;50.894;6.888;2023-11-21T08:30:12;9.80;99.90
4050;DHT22;2039;50.894;6.888;2023-11-21T08:32:39;9.80;99.90
4050;DHT22;2039;50.894;6.888;2023-11-21T08:35:07;9.90;99.90
4050;DHT22;2039;50.894;6.888;2023-11-21T08:37:33;9.80;99.90
4050;DHT22;2039;50.894;6.888;2023-11-21T08:40:05;9.80;99.90
4050;DHT22;2039;50.894;6.888;2023-11-21T08:42:35;9.90;99.90
4050;DHT22;2039;50.894;6.888;2023-11-21T08:45:01;9.90;99.90
4050;DHT22;2039;50.894;6.888;2023-11-21T08:47:27;9.80;99.90
4050;DHT22;2039;50.894;6.888;2023-11-21T08:49:53;9.90;99.90
4050;DHT22;2039;50.894;6.888;2023-11-21T08:52:19;9.80;99.90
4050;DHT22;2039;50.894;6.888;2023-11-21T08:54:48;9.80;99.90
4050;DHT22;2039;50.894;6.888;2023-11-21T08:57:14;9.80;99.90
4050;DHT22;2039;50.894;6.888;2023-11-21T08:59:39;9.80;99.90
4050;DHT22;2039;50.894;6.888;2023-11-21T09:02:05;9.80;99.90
4050;DHT22;2039;50.894;6.888;2023-11-21T09:04:31;9.80;99.90
4050;DHT22;2039;50.894;6.888;2023-11-21T09:06:57;9.80;99.90
4050;DHT22;2039;50.894;6.888;2023-11-21T09:09:25;9.90;99.90
4050;DHT22;2039;50.894;6.888;2023-11-21T09:11:51;9.80;99.90
4050;DHT22;2039;50.894;6.888;2023-11-21T09:14:16;9.80;99.90
4050;DHT22;2039;50.894;6.888;2023-11-21T09:16:43;9.90;99.90
4050;DHT22;2039;50.894;6.888;2023-11-21T09:19:09;9.90;99.90
4050;DHT22;2039;50.894;6.888;2023-11-21T09:21:34;10.00;99.90
4050;DHT22;2039;50.894;6.888;2023-11-21T09:24:03;10.00;99.90
4050;DHT22;2039;50.894;6.888;2023-11-21T09:26:29;10.10;99.90
4050;DHT22;2039;50.894;6.888;2023-11-21T09:28:55;10.10;99.90
4050;DHT22;2039;50.894;6.888;2023-11-21T09:31:22;10.10;99.90
4050;DHT22;2039;50.894;6.888;2023-11-21T09:33:49;10.20;99.90
4050;DHT22;2039;50.894;6.888;2023-11-21T09:36:15;10.30;99.90
4050;DHT22;2039;50.894;6.888;2023-11-21T09:38:41;10.30;99.90
4050;DHT22;2039;50.894;6.888;2023-11-21T09:41:19;10.40;99.90
4050;DHT22;2039;50.894;6.888;2023-11-21T09:43:47;10.30;99.90
4050;DHT22;2039;50.894;6.888;2023-11-21T09:46:15;10.40;99.90
4050;DHT22;2039;50.894;6.888;2023-11-21T09:48:49;10.30;99.90
4050;DHT22;2039;50.894;6.888;2023-11-21T09:51:18;10.30;99.90
4050;DHT22;2039;50.894;6.888;2023-11-21T09:53:49;10.20;99.90
4050;DHT22;2039;50.894;6.888;2023-11-21T09:56:20;10.20;99.90
4050;DHT22;2039;50.894;6.888;2023-11-21T09:59:00;10.30;99.90
4050;DHT22;2039;50.894;6.888;2023-11-21T10:01:50;10.30;99.90
4050;DHT22;2039;50.894;6.888;2023-11-21T10:04:20;10.20;99.90
4050;DHT22;2039;50.894;6.888;2023-11-21T10:06:54;10.20;99.90
4050;DHT22;2039;50.894;6.888;2023-11-21T10:09:21;10.20;99.90
4050;DHT22;2039;50.894;6.888;2023-11-21T10:11:49;10.20;99.90
4050;DHT22;2039;50.894;6.888;2023-11-21T10:14:19;10.20;99.90
4050;DHT22;2039;50.894;6.888;2023-11-21T10:16:48;10.20;99.90
4050;DHT22;2039;50.894;6.888;2023-11-21T10:19:14;10.30;99.90
4050;DHT22;2039;50.894;6.888;2023-11-21T10:21:42;10.30;99.90
4050;DHT22;2039;50.894;6.888;2023-11-21T10:24:07;10.40;99.90
4050;DHT22;2039;50.894;6.888;2023-11-21T10:26:36;10.40;99.90
4050;DHT22;2039;50.894;6.888;2023-11-21T10:29:03;10.40;99.90
4050;DHT22;2039;50.894;6.888;2023-11-21T10:31:30;10.50;99.90
4050;DHT22;2039;50.894;6.888;2023-11-21T10:36:52;10.50;99.90
4050;DHT22;2039;50.894;6.888;2023-11-21T10:39:29;10.50;99.90
4050;DHT22;2039;50.894;6.888;2023-11-21T10:41:56;10.40;99.90
4050;DHT22;2039;50.894;6.888;2023-11-21T10:44:31;10.40;99.90
4050;DHT22;2039;50.894;6.888;2023-11-21T10:46:57;10.40;99.90
4050;DHT22;2039;50.894;6.888;2023-11-21T10:49:27;10.40;99.90
4050;DHT22;2039;50.894;6.888;2023-11-21T10:52:05;10.40;99.90
4050;DHT22;2039;50.894;6.888;2023-11-21T10:54:30;10.40;99.90
4050;DHT22;2039;50.894;6.888;2023-11-21T10:56:58;10.40;99.90
4050;DHT22;2039;50.894;6.888;2023-11-21T10:59:30;10.50;99.90
4050;DHT22;2039;50.894;6.888;2023-11-21T11:01:58;10.60;99.90
4050;DHT22;2039;50.894;6.888;2023-11-21T11:04:31;10.70;99.90
4050;DHT22;2039;50.894;6.888;2023-11-21T11:07:06;10.70;99.90
4050;DHT22;2039;50.894;6.888;2023-11-21T11:09:55;10.60;99.90
4050;DHT22;2039;50.894;6.888;2023-11-21T11:12:24;10.70;99.90
4050;DHT22;2039;50.894;6.888;2023-11-21T11:15:03;10.80;99.90
4050;DHT22;2039;50.894;6.888;2023-11-21T11:17:37;10.70;99.90
4050;DHT22;2039;50.894;6.888;2023-11-21T11:20:09;10.70;99.90
4050;DHT22;2039;50.894;6.888;2023-11-21T11:29:15;10.70;99.90
4050;DHT22;2039;50.894;6.888;2023-11-21T11:35:20;10.70;99.90
4050;DHT22;2039;50.894;6.888;2023-11-21T11:37:58;10.60;99.90
4050;DHT22;2039;50.894;6.888;2023-11-21T11:40:38;10.60;99.90
4050;DHT22;2039;50.894;6.888;2023-11-21T11:43:30;10.60;99.90
4050;DHT22;2039;50.894;6.888;2023-11-21T11:46:09;10.60;99.90
4050;DHT22;2039;50.894;6.888;2023-11-21T11:48:40;10.70;99.90
4050;DHT22;2039;50.894;6.888;2023-11-21T11:53:37;10.70;99.90
4050;DHT22;2039;50.894;6.888;2023-11-21T11:56:26;10.70;99.90
4050;DHT22;2039;50.894;6.888;2023-11-21T11:58:58;10.60;99.90
4050;DHT22;2039;50.894;6.888;2023-11-21T12:01:29;10.70;99.90
4050;DHT22;2039;50.894;6.888;2023-11-21T12:07:08;10.70;99.90
4050;DHT22;2039;50.894;6.888;2023-11-21T12:09:34;10.60;99.90
4050;DHT22;2039;50.894;6.888;2023-11-21T12:12:02;10.60;99.90
4050;DHT22;2039;50.894;6.888;2023-11-21T12:14:39;10.70;99.90
4050;DHT22;2039;50.894;6.888;2023-11-21T12:17:14;10.70;99.90
4050;DHT22;2039;50.894;6.888;2023-11-21T12:19:42;10.70;99.90
4050;DHT22;2039;50.894;6.888;2023-11-21T12:22:09;10.70;99.90
4050;DHT22;2039;50.894;6.888;2023-11-21T12:24:37;10.70;99.90
4050;DHT22;2039;50.894;6.888;2023-11-21T12:27:03;10.60;99.90
4050;DHT22;2039;50.894;6.888;2023-11-21T12:29:41;10.70;99.90
4050;DHT22;2039;50.894;6.888;2023-11-21T12:32:12;10.70;99.90
4050;DHT22;2039;50.894;6.888;2023-11-21T12:34:43;10.80;99.90
4050;DHT22;2039;50.894;6.888;2023-11-21T12:37:09;10.90;99.90
4050;DHT22;2039;50.894;6.888;2023-11-21T12:39:36;10.90;99.90
4050;DHT22;2039;50.894;6.888;2023-11-21T12:42:16;10.80;99.90
4050;DHT22;2039;50.894;6.888;2023-11-21T12:44:45;10.80;99.90
4050;DHT22;2039;50.894;6.888;2023-11-21T12:47:17;10.80;99.90
4050;DHT22;2039;50.894;6.888;2023-11-21T12:49:55;10.80;99.90
4050;DHT22;2039;50.894;6.888;2023-11-21T12:52:33;10.80;99.90
4050;DHT22;2039;50.894;6.888;2023-11-21T12:54:59;10.80;99.90
4050;DHT22;2039;50.894;6.888;2023-11-21T12:57:36;10.80;99.90
4050;DHT22;2039;50.894;6.888;2023-11-21T13:00:06;10.80;99.90
4050;DHT22;2039;50.894;6.888;2023-11-21T13:02:41;10.90;99.90
4050;DHT22;2039;50.894;6.888;2023-11-21T13:05:14;11.10;99.90
4050;DHT22;2039;50.894;6.888;2023-11-21T13:07:55;11.10;99.90
4050;DHT22;2039;50.894;6.888;2023-11-21T13:10:26;11.20;99.90
4050;DHT22;2039;50.894;6.888;2023-11-21T13:12:59;11.20;99.90
4050;DHT22;2039;50.894;6.888;2023-11-21T13:15:27;11.20;99.90
4050;DHT22;2039;50.894;6.888;2023-11-21T13:17:53;11.10;99.90
4050;DHT22;2039;50.894;6.888;2023-11-21T13:20:22;11.20;99.90
4050;DHT22;2039;50.894;6.888;2023-11-21T13:23:06;11.10;99.90
4050;DHT22;2039;50.894;6.888;2023-11-21T13:25:33;11.10;99.90
4050;DHT22;2039;50.894;6.888;2023-11-21T13:27:59;11.10;99.90
4050;DHT22;2039;50.894;6.888;2023-11-21T13:30:28;11.00;99.90
4050;DHT22;2039;50.894;6.888;2023-11-21T13:33:03;10.90;99.90
4050;DHT22;2039;50.894;6.888;2023-11-21T13:35:34;10.90;99.90
4050;DHT22;2039;50.894;6.888;2023-11-21T13:38:16;10.90;99.90
4050;DHT22;2039;50.894;6.888;2023-11-21T13:40:47;11.00;99.90
4050;DHT22;2039;50.894;6.888;2023-11-21T13:43:16;11.00;99.90
4050;DHT22;2039;50.894;6.888;2023-11-21T13:45:44;11.00;99.90
4050;DHT22;2039;50.894;6.888;2023-11-21T13:48:12;11.10;99.90
4050;DHT22;2039;50.894;6.888;2023-11-21T13:50:45;11.00;99.90
4050;DHT22;2039;50.894;6.888;2023-11-21T13:53:23;10.90;99.90
4050;DHT22;2039;50.894;6.888;2023-11-21T13:55:50;10.90;99.90
4050;DHT22;2039;50.894;6.888;2023-11-21T13:58:23;10.80;99.90
4050;DHT22;2039;50.894;6.888;2023-11-21T14:01:02;10.90;99.90
4050;DHT22;2039;50.894;6.888;2023-11-21T14:03:31;10.80;99.90
4050;DHT22;2039;50.894;6.888;2023-11-21T14:06:10;10.90;99.90
4050;DHT22;2039;50.894;6.888;2023-11-21T14:08:40;10.80;99.90
4050;DHT22;2039;50.894;6.888;2023-11-21T14:11:07;10.80;99.90
4050;DHT22;2039;50.894;6.888;2023-11-21T14:13:33;10.80;99.90
4050;DHT22;2039;50.894;6.888;2023-11-21T14:15:59;10.80;99.90
4050;DHT22;2039;50.894;6.888;2023-11-21T14:18:28;10.80;99.90
4050;DHT22;2039;50.894;6.888;2023-11-21T14:21:04;10.80;99.90
4050;DHT22;2039;50.894;6.888;2023-11-21T14:23:31;10.80;99.90
4050;DHT22;2039;50.894;6.888;2023-11-21T14:25:57;10.80;99.90
4050;DHT22;2039;50.894;6.888;2023-11-21T14:28:23;10.80;99.90
4050;DHT22;2039;50.894;6.888;2023-11-21T14:30:49;10.80;99.90
4050;DHT22;2039;50.894;6.888;2023-11-21T14:33:15;10.80;99.90
4050;DHT22;2039;50.894;6.888;2023-11-21T14:35:42;10.80;99.90
4050;DHT22;2039;50.894;6.888;2023-11-21T14:38:08;10.80;99.90
4050;DHT22;2039;50.894;6.888;2023-11-21T14:40:35;10.70;99.90
4050;DHT22;2039;50.894;6.888;2023-11-21T14:43:02;10.80;99.90
4050;DHT22;2039;50.894;6.888;2023-11-21T14:45:32;10.80;99.90
4050;DHT22;2039;50.894;6.888;2023-11-21T14:47:58;10.80;99.90
4050;DHT22;2039;50.894;6.888;2023-11-21T14:50:30;10.70;99.90
4050;DHT22;2039;50.894;6.888;2023-11-21T14:53:12;10.70;99.90
4050;DHT22;2039;50.894;6.888;2023-11-21T14:55:41;10.70;99.90
4050;DHT22;2039;50.894;6.888;2023-11-21T14:58:16;10.70;99.90
4050;DHT22;2039;50.894;6.888;2023-11-21T15:01:00;10.80;99.90
4050;DHT22;2039;50.894;6.888;2023-11-21T15:03:28;10.70;99.90
4050;DHT22;2039;50.894;6.888;2023-11-21T15:05:57;10.70;99.90
4050;DHT22;2039;50.894;6.888;2023-11-21T15:08:23;10.70;99.90
4050;DHT22;2039;50.894;6.888;2023-11-21T15:10:57;10.60;99.90
4050;DHT22;2039;50.894;6.888;2023-11-21T15:13:23;10.70;99.90
4050;DHT22;2039;50.894;6.888;2023-11-21T15:15:51;10.70;99.90
4050;DHT22;2039;50.894;6.888;2023-11-21T15:18:20;10.70;99.90
4050;DHT22;2039;50.894;6.888;2023-11-21T15:20:48;10.70;99.90
4050;DHT22;2039;50.894;6.888;2023-11-21T15:23:14;10.60;99.90
4050;DHT22;2039;50.894;6.888;2023-11-21T15:25:42;10.60;99.90
4050;DHT22;2039;50.894;6.888;2023-11-21T15:28:08;10.60;99.90
4050;DHT22;2039;50.894;6.888;2023-11-21T15:30:34;10.60;99.90
4050;DHT22;2039;50.894;6.888;2023-11-21T15:33:00;10.60;99.90
4050;DHT22;2039;50.894;6.888;2023-11-21T15:35:26;10.50;99.90
4050;DHT22;2039;50.894;6.888;2023-11-21T15:37:55;10.60;99.90
4050;DHT22;2039;50.894;6.888;2023-11-21T15:40:23;10.60;99.90
4050;DHT22;2039;50.894;6.888;2023-11-21T15:42:49;10.60;99.90
4050;DHT22;2039;50.894;6.888;2023-11-21T15:45:15;10.60;99.90
4050;DHT22;2039;50.894;6.888;2023-11-21T15:47:44;10.60;99.90
4050;DHT22;2039;50.894;6.888;2023-11-21T15:50:09;10.60;99.90
4050;DHT22;2039;50.894;6.888;2023-11-21T15:52:36;10.50;99.90
4050;DHT22;2039;50.894;6.888;2023-11-21T15:55:02;10.50;99.90
4050;DHT22;2039;50.894;6.888;2023-11-21T15:57:28;10.50;99.90
4050;DHT22;2039;50.894;6.888;2023-11-21T15:59:54;10.50;99.90
4050;DHT22;2039;50.894;6.888;2023-11-21T16:02:19;10.50;99.90
4050;DHT22;2039;50.894;6.888;2023-11-21T16:04:45;10.50;99.90
4050;DHT22;2039;50.894;6.888;2023-11-21T16:07:11;10.50;99.90
4050;DHT22;2039;50.894;6.888;2023-11-21T16:09:37;10.50;99.90
4050;DHT22;2039;50.894;6.888;2023-11-21T16:12:06;10.50;99.90
4050;DHT22;2039;50.894;6.888;2023-11-21T16:14:36;10.50;99.90
4050;DHT22;2039;50.894;6.888;2023-11-21T16:17:08;10.40;99.90
4050;DHT22;2039;50.894;6.888;2023-11-21T16:19:34;10.40;99.90
4050;DHT22;2039;50.894;6.888;2023-11-21T16:22:00;10.40;99.90
4050;DHT22;2039;50.894;6.888;2023-11-21T16:24:26;10.50;99.90
4050;DHT22;2039;50.894;6.888;2023-11-21T16:26:53;10.50;99.90
4050;DHT22;2039;50.894;6.888;2023-11-21T16:29:21;10.50;99.90
4050;DHT22;2039;50.894;6.888;2023-11-21T16:31:47;10.40;99.90
4050;DHT22;2039;50.894;6.888;2023-11-21T16:34:18;10.40;99.90